TVF1383 LFMN-LIMC
Flight info
| Callsign | TVF1383 |
|---|---|
| Flight time | 0h 37m |
| Altitude | 30000 |
| Route | BASIP DCT EGHIN DCT ANAKI P860 DEVOX |
| Aircraft | B738/M-SDE2E3FGHIRWXY/LB1 |
Departure
| Time | 2026-05-04 07:08 |
|---|---|
| Airport | Nice-Côte d'Azur Airport (LFMN) |
Arrival
| Time | 2026-05-04 07:46 |
|---|---|
| Airport | Milan Malpensa International Airport (LIMC) |
| Time | Latitude | Longitude | Altitude | Speed | Heading |
|---|---|---|---|---|---|
| 2026-05-04 06:52 | 43.65748 | 7.20702 | 21 ft | 0 kts | 345° |
| 2026-05-04 06:58 | 43.65766 | 7.20697 | 20 ft | 9 kts | 353° |
| 2026-05-04 06:59 | 43.65831 | 7.20737 | 21 ft | 10 kts | 45° |
| 2026-05-04 06:59 | 43.65847 | 7.20825 | 20 ft | 12 kts | 117° |
| 2026-05-04 06:59 | 43.65793 | 7.20860 | 20 ft | 13 kts | 175° |
| 2026-05-04 06:59 | 43.65680 | 7.20768 | 20 ft | 19 kts | 227° |
| 2026-05-04 07:01 | 43.65220 | 7.20376 | 20 ft | 15 kts | 139° |
| 2026-05-04 07:01 | 43.65148 | 7.20458 | 20 ft | 17 kts | 154° |
| 2026-05-04 07:02 | 43.65029 | 7.20411 | 20 ft | 10 kts | 223° |
| 2026-05-04 07:02 | 43.64973 | 7.20336 | 20 ft | 11 kts | 225° |
| 2026-05-04 07:02 | 43.64926 | 7.20272 | 20 ft | 8 kts | 225° |
| 2026-05-04 07:02 | 43.64887 | 7.20217 | 20 ft | 8 kts | 225° |
| 2026-05-04 07:03 | 43.64849 | 7.20163 | 20 ft | 8 kts | 225° |
| 2026-05-04 07:03 | 43.64802 | 7.20135 | 20 ft | 8 kts | 181° |
| 2026-05-04 07:03 | 43.64756 | 7.20160 | 21 ft | 1 kts | 142° |
| 2026-05-04 07:05 | 43.64755 | 7.20161 | 21 ft | 2 kts | 142° |
| 2026-05-04 07:05 | 43.64724 | 7.20195 | 21 ft | 9 kts | 140° |
| 2026-05-04 07:06 | 43.64745 | 7.20342 | 22 ft | 2 kts | 48° |
| 2026-05-04 07:06 | 43.64787 | 7.20407 | 22 ft | 35 kts | 47° |
| 2026-05-04 07:06 | 43.65163 | 7.20930 | 20 ft | 116 kts | 44° |
| 2026-05-04 07:07 | 43.65878 | 7.21940 | 179 ft | 168 kts | 45° |
| 2026-05-04 07:08 | 43.63442 | 7.32730 | 5078 ft | 218 kts | 91° |
| 2026-05-04 07:09 | 43.63787 | 7.34786 | 5709 ft | 224 kts | 73° |
| 2026-05-04 07:09 | 43.64319 | 7.36859 | 6119 ft | 240 kts | 73° |
| 2026-05-04 07:09 | 43.64949 | 7.39089 | 6651 ft | 255 kts | 70° |
| 2026-05-04 07:09 | 43.65608 | 7.41403 | 7453 ft | 261 kts | 77° |
| 2026-05-04 07:10 | 43.66094 | 7.43797 | 8336 ft | 261 kts | 77° |
| 2026-05-04 07:10 | 43.66679 | 7.46223 | 8941 ft | 270 kts | 73° |
| 2026-05-04 07:12 | 43.72178 | 7.66677 | 10940 ft | 394 kts | 72° |
| 2026-05-04 07:12 | 43.73142 | 7.70280 | 11268 ft | 405 kts | 70° |
| 2026-05-04 07:12 | 43.74556 | 7.73687 | 11766 ft | 415 kts | 50° |
| 2026-05-04 07:12 | 43.76610 | 7.76495 | 12493 ft | 415 kts | 44° |
| 2026-05-04 07:13 | 43.78602 | 7.79327 | 13084 ft | 418 kts | 49° |
| 2026-05-04 07:13 | 43.80498 | 7.82400 | 13644 ft | 422 kts | 50° |
| 2026-05-04 07:13 | 43.82428 | 7.85501 | 14180 ft | 425 kts | 49° |
| 2026-05-04 07:14 | 43.90368 | 7.97966 | 16174 ft | 438 kts | 49° |
| 2026-05-04 07:14 | 43.92384 | 8.01147 | 16734 ft | 439 kts | 49° |
| 2026-05-04 07:15 | 43.94396 | 8.04326 | 17272 ft | 440 kts | 49° |
| 2026-05-04 07:15 | 43.96418 | 8.07523 | 17812 ft | 441 kts | 49° |
| 2026-05-04 07:15 | 43.98444 | 8.10732 | 18342 ft | 443 kts | 49° |
| 2026-05-04 07:15 | 44.00480 | 8.13959 | 18757 ft | 446 kts | 49° |
| 2026-05-04 07:16 | 44.02528 | 8.17208 | 19126 ft | 449 kts | 49° |
| 2026-05-04 07:16 | 44.04572 | 8.20525 | 19492 ft | 453 kts | 52° |
| 2026-05-04 07:16 | 44.06291 | 8.24197 | 19845 ft | 456 kts | 63° |
| 2026-05-04 07:16 | 44.07518 | 8.28263 | 20241 ft | 457 kts | 71° |
| 2026-05-04 07:17 | 44.08632 | 8.32417 | 20642 ft | 459 kts | 70° |
| 2026-05-04 07:17 | 44.09794 | 8.36574 | 21034 ft | 461 kts | 69° |
| 2026-05-04 07:17 | 44.10982 | 8.40730 | 21110 ft | 466 kts | 69° |
| 2026-05-04 07:17 | 44.12197 | 8.44936 | 21120 ft | 470 kts | 69° |
| 2026-05-04 07:18 | 44.13415 | 8.49153 | 21115 ft | 469 kts | 69° |
| 2026-05-04 07:18 | 44.14630 | 8.53368 | 21115 ft | 468 kts | 69° |
| 2026-05-04 07:18 | 44.15837 | 8.57571 | 21120 ft | 467 kts | 69° |
| 2026-05-04 07:18 | 44.17040 | 8.61776 | 21120 ft | 467 kts | 69° |
| 2026-05-04 07:19 | 44.18335 | 8.65864 | 21108 ft | 468 kts | 61° |
| 2026-05-04 07:19 | 44.20396 | 8.69358 | 21130 ft | 469 kts | 39° |
| 2026-05-04 07:19 | 44.23192 | 8.71677 | 21113 ft | 470 kts | 21° |
| 2026-05-04 07:19 | 44.26328 | 8.72945 | 20981 ft | 470 kts | 7° |
| 2026-05-04 07:20 | 44.29576 | 8.73164 | 20901 ft | 465 kts | 359° |
| 2026-05-04 07:20 | 44.32812 | 8.73209 | 20786 ft | 466 kts | 0° |
| 2026-05-04 07:20 | 44.36047 | 8.73294 | 20677 ft | 465 kts | 0° |
| 2026-05-04 07:20 | 44.39279 | 8.73401 | 20555 ft | 464 kts | 0° |
| 2026-05-04 07:22 | 44.61898 | 8.74361 | 20328 ft | 464 kts | 1° |
| 2026-05-04 07:22 | 44.65128 | 8.74501 | 20329 ft | 466 kts | 1° |
| 2026-05-04 07:23 | 44.68371 | 8.74623 | 20330 ft | 463 kts | 359° |
| 2026-05-04 07:23 | 44.71532 | 8.74070 | 20298 ft | 456 kts | 341° |
| 2026-05-04 07:23 | 44.74450 | 8.72353 | 20383 ft | 456 kts | 334° |
| 2026-05-04 07:23 | 44.77389 | 8.70623 | 20497 ft | 459 kts | 337° |
| 2026-05-04 07:24 | 44.80346 | 8.69066 | 20628 ft | 460 kts | 338° |
| 2026-05-04 07:24 | 44.83359 | 8.67531 | 20757 ft | 461 kts | 339° |
| 2026-05-04 07:24 | 44.86376 | 8.65999 | 20899 ft | 461 kts | 338° |
| 2026-05-04 07:24 | 44.89394 | 8.64454 | 21037 ft | 461 kts | 338° |
| 2026-05-04 07:25 | 44.92407 | 8.62896 | 21170 ft | 462 kts | 338° |
| 2026-05-04 07:26 | 45.12400 | 8.55521 | 22073 ft | 397 kts | 347° |
| 2026-05-04 07:27 | 45.15125 | 8.54745 | 22230 ft | 401 kts | 347° |
| 2026-05-04 07:27 | 45.17895 | 8.53963 | 22110 ft | 410 kts | 347° |
| 2026-05-04 07:27 | 45.20683 | 8.53186 | 21760 ft | 406 kts | 347° |
| 2026-05-04 07:27 | 45.23435 | 8.52423 | 21427 ft | 400 kts | 347° |
| 2026-05-04 07:28 | 45.26167 | 8.51780 | 21083 ft | 397 kts | 355° |
| 2026-05-04 07:28 | 45.28886 | 8.52322 | 20729 ft | 395 kts | 21° |
| 2026-05-04 07:28 | 45.31245 | 8.54228 | 20438 ft | 390 kts | 40° |
| 2026-05-04 07:28 | 45.33071 | 8.57022 | 20128 ft | 385 kts | 57° |
| 2026-05-04 07:29 | 45.34295 | 8.60392 | 19796 ft | 384 kts | 75° |
| 2026-05-04 07:29 | 45.34628 | 8.64116 | 19481 ft | 380 kts | 99° |
| 2026-05-04 07:29 | 45.33824 | 8.67612 | 19173 ft | 370 kts | 125° |
| 2026-05-04 07:29 | 45.32085 | 8.70133 | 18876 ft | 360 kts | 151° |
| 2026-05-04 07:30 | 45.29757 | 8.71248 | 18573 ft | 354 kts | 177° |
| 2026-05-04 07:30 | 45.27355 | 8.70710 | 18260 ft | 351 kts | 203° |
| 2026-05-04 07:30 | 45.25145 | 8.69279 | 17931 ft | 349 kts | 198° |
| 2026-05-04 07:30 | 45.22742 | 8.69020 | 17553 ft | 351 kts | 170° |
| 2026-05-04 07:31 | 45.20393 | 8.69922 | 17272 ft | 349 kts | 166° |
| 2026-05-04 07:31 | 45.18033 | 8.70736 | 16925 ft | 349 kts | 169° |
| 2026-05-04 07:33 | 45.03725 | 8.79637 | 14628 ft | 344 kts | 109° |
| 2026-05-04 07:33 | 45.03407 | 8.82996 | 14304 ft | 348 kts | 88° |
| 2026-05-04 07:33 | 45.04071 | 8.86271 | 13984 ft | 351 kts | 59° |
| 2026-05-04 07:33 | 45.05732 | 8.88724 | 13646 ft | 346 kts | 29° |
| 2026-05-04 07:34 | 45.07976 | 8.89757 | 13307 ft | 337 kts | 359° |
| 2026-05-04 07:34 | 45.10215 | 8.89150 | 12965 ft | 325 kts | 329° |
| 2026-05-04 07:34 | 45.11969 | 8.87241 | 12674 ft | 315 kts | 314° |
| 2026-05-04 07:34 | 45.13808 | 8.85611 | 12278 ft | 323 kts | 342° |
| 2026-05-04 07:35 | 45.16044 | 8.85319 | 12011 ft | 324 kts | 357° |
| 2026-05-04 07:35 | 45.18323 | 8.85061 | 11545 ft | 326 kts | 349° |
| 2026-05-04 07:35 | 45.20532 | 8.84514 | 11146 ft | 327 kts | 347° |
| 2026-05-04 07:35 | 45.22774 | 8.83886 | 10727 ft | 329 kts | 347° |
| 2026-05-04 07:36 | 45.25025 | 8.83256 | 10330 ft | 331 kts | 348° |
| 2026-05-04 07:36 | 45.27291 | 8.82632 | 9907 ft | 332 kts | 348° |
| 2026-05-04 07:38 | 45.42038 | 8.76244 | 6893 ft | 336 kts | 329° |
| 2026-05-04 07:38 | 45.44073 | 8.74624 | 6483 ft | 335 kts | 331° |
| 2026-05-04 07:38 | 45.46116 | 8.73029 | 6028 ft | 335 kts | 331° |
| 2026-05-04 07:38 | 45.48166 | 8.71444 | 5569 ft | 334 kts | 331° |
| 2026-05-04 07:39 | 45.50211 | 8.69870 | 5118 ft | 334 kts | 331° |
| 2026-05-04 07:39 | 45.52256 | 8.68302 | 4682 ft | 328 kts | 331° |
| 2026-05-04 07:39 | 45.54220 | 8.66795 | 4203 ft | 313 kts | 330° |
| 2026-05-04 07:39 | 45.56096 | 8.65358 | 3743 ft | 300 kts | 330° |
| 2026-05-04 07:40 | 45.57905 | 8.63975 | 3292 ft | 290 kts | 330° |
| 2026-05-04 07:40 | 45.59655 | 8.62628 | 2907 ft | 279 kts | 330° |
| 2026-05-04 07:40 | 45.61276 | 8.61374 | 2928 ft | 252 kts | 332° |
| 2026-05-04 07:40 | 45.62767 | 8.60258 | 2963 ft | 234 kts | 336° |
| 2026-05-04 07:41 | 45.64311 | 8.59666 | 2994 ft | 229 kts | 353° |
| 2026-05-04 07:41 | 45.65898 | 8.59351 | 2993 ft | 231 kts | 350° |
| 2026-05-04 07:41 | 45.67487 | 8.58936 | 3001 ft | 233 kts | 349° |
| 2026-05-04 07:41 | 45.69085 | 8.58496 | 2990 ft | 234 kts | 349° |
| 2026-05-04 07:42 | 45.70678 | 8.58054 | 2990 ft | 233 kts | 349° |
| 2026-05-04 07:42 | 45.72255 | 8.57613 | 3015 ft | 230 kts | 349° |
| 2026-05-04 07:42 | 45.73824 | 8.57233 | 2987 ft | 228 kts | 358° |
| 2026-05-04 07:42 | 45.75291 | 8.57807 | 3002 ft | 226 kts | 38° |
| 2026-05-04 07:43 | 45.76231 | 8.59602 | 3106 ft | 230 kts | 72° |
| 2026-05-04 07:43 | 45.76343 | 8.61846 | 3453 ft | 228 kts | 103° |
| 2026-05-04 07:43 | 45.75881 | 8.64021 | 3681 ft | 228 kts | 111° |
| 2026-05-04 07:43 | 45.75235 | 8.66158 | 3439 ft | 241 kts | 120° |
| 2026-05-04 07:44 | 45.74272 | 8.68073 | 3175 ft | 233 kts | 136° |
| 2026-05-04 07:44 | 45.72956 | 8.69395 | 2486 ft | 237 kts | 165° |
| 2026-05-04 07:44 | 45.71404 | 8.69997 | 2293 ft | 219 kts | 167° |
| 2026-05-04 07:44 | 45.69933 | 8.70366 | 2096 ft | 212 kts | 172° |
| 2026-05-04 07:45 | 45.68486 | 8.70722 | 1842 ft | 210 kts | 168° |
| 2026-05-04 07:45 | 45.67063 | 8.71167 | 1582 ft | 208 kts | 167° |
| 2026-05-04 07:45 | 45.65615 | 8.71548 | 1196 ft | 215 kts | 168° |
| 2026-05-04 07:45 | 45.64158 | 8.71977 | 811 ft | 210 kts | 169° |
| 2026-05-04 07:46 | 45.62881 | 8.72324 | 747 ft | 123 kts | 169° |
| 2026-05-04 07:46 | 45.62434 | 8.72450 | 744 ft | 19 kts | 168° |
| 2026-05-04 07:46 | 45.62305 | 8.72480 | 743 ft | 18 kts | 176° |
| 2026-05-04 07:46 | 45.62229 | 8.72361 | 748 ft | 17 kts | 256° |
| 2026-05-04 07:47 | 45.62224 | 8.72330 | 748 ft | 0 kts | 259° |
| 2026-05-04 07:47 | 45.62223 | 8.72303 | 746 ft | 8 kts | 272° |
| 2026-05-04 07:47 | 45.62288 | 8.72236 | 748 ft | 16 kts | 345° |
| 2026-05-04 07:49 | 45.62659 | 8.71736 | 749 ft | 6 kts | 330° |
| 2026-05-04 07:49 | 45.62708 | 8.71702 | 752 ft | 10 kts | 330° |
| 2026-05-04 07:49 | 45.62733 | 8.71683 | 749 ft | 0 kts | 332° |